Time;durP1;ratioP1;P1;durP2;ratioP2;P2;SDS_P1;SDS_P2;PMS_P1;PMS_P2;Temp;Humidity;BMP_temperature;BMP_pressure;BME280_temperature;BME280_humidity;BME280_pressure;Samples;Min_cycle;Max_cycle;Signal;HPM_P1;HPM_P2
2023/05/11 00:00:15;;;;;;;1.37;1.13;;;13.80;99.90;;;;;;5019886;28;20216;-70
2023/05/11 00:02:42;;;;;;;1.50;1.40;;;13.80;99.90;;;;;;5003674;28;20227;-70
2023/05/11 00:05:08;;;;;;;1.00;1.00;;;13.90;99.90;;;;;;5016257;28;20724;-70
2023/05/11 00:07:34;;;;;;;1.03;1.03;;;13.90;99.90;;;;;;5012918;28;20484;-69
2023/05/11 00:09:59;;;;;;;1.20;1.10;;;13.90;99.90;;;;;;5018209;28;20464;-69
2023/05/11 00:12:25;;;;;;;1.00;1.00;;;13.80;99.90;;;;;;5015689;28;20638;-72
2023/05/11 00:14:51;;;;;;;1.20;1.10;;;13.80;99.90;;;;;;5024489;28;20229;-69
2023/05/11 00:17:18;;;;;;;2.10;1.37;;;13.70;99.90;;;;;;5020458;28;20226;-69
2023/05/11 00:19:44;;;;;;;1.30;1.20;;;13.70;99.90;;;;;;5012223;28;20214;-69
2023/05/11 00:22:10;;;;;;;1.00;1.00;;;13.60;99.90;;;;;;5028890;28;20468;-70
2023/05/11 00:24:35;;;;;;;1.10;1.00;;;13.60;99.90;;;;;;5004066;28;20322;-70
2023/05/11 00:27:01;;;;;;;1.20;1.10;;;13.60;99.90;;;;;;5031594;28;20245;-69
2023/05/11 00:29:26;;;;;;;2.20;0.93;;;13.70;99.90;;;;;;5022439;28;20260;-69
2023/05/11 00:31:52;;;;;;;1.13;1.00;;;13.70;99.90;;;;;;5022681;28;20233;-69
2023/05/11 00:34:18;;;;;;;0.70;0.70;;;13.70;99.90;;;;;;5004166;28;20233;-69
2023/05/11 00:36:44;;;;;;;5.30;1.40;;;13.70;99.90;;;;;;5015252;28;20279;-70
2023/05/11 00:39:11;;;;;;;1.30;1.20;;;13.70;99.90;;;;;;5020787;28;20595;-70
2023/05/11 00:41:37;;;;;;;1.00;0.90;;;13.60;99.90;;;;;;5026232;28;20449;-70
2023/05/11 00:44:03;;;;;;;6.40;1.20;;;13.60;99.90;;;;;;5012843;28;20459;-70
2023/05/11 00:46:30;;;;;;;1.57;1.10;;;13.60;99.90;;;;;;5030737;28;20900;-70
2023/05/11 00:48:56;;;;;;;1.50;1.23;;;13.60;99.90;;;;;;5022806;28;20444;-69
2023/05/11 00:51:21;;;;;;;1.10;1.10;;;13.60;99.90;;;;;;5015540;28;20506;-70
2023/05/11 00:53:48;;;;;;;1.20;1.10;;;13.50;99.90;;;;;;5006390;28;20256;-69
2023/05/11 00:56:14;;;;;;;1.93;1.20;;;13.50;99.90;;;;;;5026503;28;20221;-70
2023/05/11 00:58:40;;;;;;;1.57;0.97;;;13.50;99.90;;;;;;5020875;28;20456;-69
2023/05/11 01:01:06;;;;;;;1.50;1.37;;;13.50;99.90;;;;;;5028676;28;20217;-66
2023/05/11 01:03:33;;;;;;;1.03;1.03;;;13.40;99.90;;;;;;5010778;28;20320;-68
2023/05/11 01:06:15;;;;;;;6.43;1.00;;;13.40;99.90;;;;;;5017435;28;20221;-68
2023/05/11 01:09:04;;;;;;;0.90;0.90;;;13.40;99.90;;;;;;5025280;28;20456;-70
2023/05/11 01:11:57;;;;;;;0.87;0.80;;;13.40;99.90;;;;;;5019466;28;20447;-70
2023/05/11 01:14:35;;;;;;;1.20;1.10;;;13.30;99.90;;;;;;5004834;28;20467;-72
2023/05/11 01:17:08;;;;;;;2.17;1.10;;;13.30;99.90;;;;;;5022162;28;20451;-70
2023/05/11 01:19:46;;;;;;;1.27;1.10;;;13.40;99.90;;;;;;5014717;28;20467;-69
2023/05/11 01:22:51;;;;;;;0.97;0.97;;;13.30;99.90;;;;;;5026036;28;20465;-71
2023/05/11 01:25:45;;;;;;;1.93;1.30;;;13.20;99.90;;;;;;4945824;28;20451;-70
2023/05/11 01:28:14;;;;;;;1.97;1.30;;;13.10;99.90;;;;;;4955061;28;20455;-71
2023/05/11 01:30:50;;;;;;;0.97;0.97;;;13.00;99.90;;;;;;4996241;28;20495;-71
2023/05/11 01:33:19;;;;;;;1.20;1.10;;;13.00;99.90;;;;;;5029892;28;20455;-71
2023/05/11 01:35:51;;;;;;;1.40;1.17;;;13.10;99.90;;;;;;5021577;28;20475;-70
2023/05/11 01:38:20;;;;;;;0.90;0.90;;;13.10;99.90;;;;;;5020700;28;20471;-70
2023/05/11 01:40:54;;;;;;;1.43;1.10;;;13.20;99.90;;;;;;5004261;28;20448;-68
2023/05/11 01:43:24;;;;;;;1.77;1.13;;;13.10;99.90;;;;;;5002299;28;20470;-69
2023/05/11 01:45:52;;;;;;;1.40;1.20;;;13.00;99.90;;;;;;5021380;28;20456;-71
2023/05/11 01:48:24;;;;;;;5.50;1.30;;;12.90;99.90;;;;;;5007519;28;20475;-70
2023/05/11 01:50:51;;;;;;;1.33;1.20;;;12.80;99.90;;;;;;5020330;28;21008;-70
2023/05/11 01:53:18;;;;;;;1.47;1.37;;;12.80;99.90;;;;;;4999917;28;20545;-70
2023/05/11 01:55:46;;;;;;;1.20;1.10;;;12.80;99.90;;;;;;5026843;28;20997;-69
2023/05/11 01:58:15;;;;;;;1.27;1.17;;;12.80;99.90;;;;;;5022354;28;20456;-71
2023/05/11 02:00:44;;;;;;;1.57;1.20;;;12.90;99.90;;;;;;5015366;28;20479;-70
2023/05/11 02:03:11;;;;;;;1.30;1.20;;;12.80;99.90;;;;;;5027258;28;21142;-71
2023/05/11 02:05:38;;;;;;;1.20;1.20;;;12.80;99.90;;;;;;5013411;28;20456;-70
2023/05/11 02:08:04;;;;;;;1.20;1.10;;;12.90;99.90;;;;;;5003407;28;21041;-68
2023/05/11 02:10:32;;;;;;;1.40;1.30;;;12.90;99.90;;;;;;4998422;28;20862;-71
2023/05/11 02:13:00;;;;;;;2.00;1.20;;;12.90;99.90;;;;;;5012599;28;20452;-69
2023/05/11 02:15:27;;;;;;;1.30;1.20;;;12.80;99.90;;;;;;5012028;28;20466;-71
2023/05/11 02:17:54;;;;;;;1.43;1.00;;;12.80;99.90;;;;;;5020427;28;20456;-70
2023/05/11 02:20:21;;;;;;;1.10;1.00;;;12.90;99.90;;;;;;5031914;28;20512;-69
2023/05/11 02:22:49;;;;;;;1.23;1.17;;;12.90;99.90;;;;;;5023142;28;20514;-70
2023/05/11 02:25:15;;;;;;;1.27;1.17;;;12.90;99.90;;;;;;5009850;28;20457;-70
2023/05/11 02:27:42;;;;;;;1.07;1.00;;;12.90;99.90;;;;;;5006205;28;20481;-71
2023/05/11 02:30:08;;;;;;;1.43;1.10;;;13.00;99.90;;;;;;5016266;28;20483;-68
2023/05/11 02:32:40;;;;;;;1.40;1.30;;;12.90;99.90;;;;;;5019582;28;20210;-70
2023/05/11 02:35:14;;;;;;;1.30;1.20;;;12.80;99.90;;;;;;5024238;28;20476;-70
2023/05/11 02:37:43;;;;;;;1.60;1.50;;;12.80;99.90;;;;;;5016044;28;20474;-70
2023/05/11 02:40:15;;;;;;;1.13;1.03;;;12.70;99.90;;;;;;5012498;28;20483;-70
2023/05/11 02:42:43;;;;;;;2.23;1.40;;;12.70;99.90;;;;;;5020875;28;20530;-69
2023/05/11 02:45:13;;;;;;;1.00;1.00;;;12.50;99.90;;;;;;5030004;28;20517;-71
2023/05/11 02:47:44;;;;;;;2.00;1.13;;;12.50;99.90;;;;;;5014754;28;20463;-69
2023/05/11 02:50:12;;;;;;;1.33;1.30;;;12.30;99.90;;;;;;5032840;28;20499;-70
2023/05/11 02:52:44;;;;;;;1.37;1.20;;;12.30;99.90;;;;;;5016936;28;20462;-69
2023/05/11 02:55:12;;;;;;;1.43;1.30;;;12.40;99.90;;;;;;5017650;28;20560;-70
2023/05/11 02:57:38;;;;;;;2.70;1.30;;;12.40;99.90;;;;;;5015193;28;20452;-69
2023/05/11 03:00:07;;;;;;;1.57;1.30;;;12.50;99.90;;;;;;5026852;28;20454;-70
2023/05/11 03:02:33;;;;;;;1.10;1.00;;;12.50;99.90;;;;;;5027294;28;20451;-70
2023/05/11 03:04:59;;;;;;;1.43;1.03;;;12.60;99.90;;;;;;5037299;28;20503;-67
2023/05/11 03:07:25;;;;;;;2.20;1.50;;;12.60;99.90;;;;;;5009735;28;20271;-70
2023/05/11 03:09:51;;;;;;;1.00;1.00;;;12.60;99.90;;;;;;5022567;28;20304;-70
2023/05/11 03:12:16;;;;;;;1.90;1.30;;;12.50;99.90;;;;;;5018021;28;20242;-70
2023/05/11 03:14:43;;;;;;;2.20;1.33;;;12.40;99.90;;;;;;5026223;28;20498;-69
2023/05/11 03:17:11;;;;;;;1.20;1.03;;;12.40;99.90;;;;;;5026535;28;20213;-69
2023/05/11 03:19:38;;;;;;;4.50;1.37;;;12.30;99.90;;;;;;5014703;28;20450;-68
2023/05/11 03:22:04;;;;;;;2.70;1.70;;;12.30;99.90;;;;;;5024175;28;20477;-69
2023/05/11 03:24:31;;;;;;;2.43;1.40;;;12.30;99.90;;;;;;5015650;28;20468;-70
2023/05/11 03:26:58;;;;;;;3.53;1.47;;;12.20;99.90;;;;;;5011949;28;20456;-69
2023/05/11 03:29:27;;;;;;;1.77;1.50;;;12.20;99.90;;;;;;5016518;28;20467;-70
2023/05/11 03:31:53;;;;;;;1.53;1.37;;;12.20;99.90;;;;;;5034181;28;20491;-70
2023/05/11 03:34:20;;;;;;;1.57;1.47;;;12.20;99.90;;;;;;5023053;28;20495;-70
2023/05/11 03:36:51;;;;;;;1.93;1.70;;;12.20;99.90;;;;;;5005069;28;20455;-70
2023/05/11 03:39:19;;;;;;;1.90;1.07;;;12.00;99.90;;;;;;5034862;28;20451;-69
2023/05/11 03:41:49;;;;;;;1.40;1.30;;;11.90;99.90;;;;;;5026203;28;20458;-70
2023/05/11 03:44:18;;;;;;;1.53;1.43;;;11.90;99.90;;;;;;5015308;28;20909;-69
2023/05/11 03:46:46;;;;;;;1.70;1.60;;;11.70;99.90;;;;;;5012886;28;20478;-69
2023/05/11 03:49:14;;;;;;;1.57;1.47;;;11.60;99.90;;;;;;5010697;28;20603;-71
2023/05/11 03:51:41;;;;;;;1.50;1.40;;;11.60;99.90;;;;;;5029601;28;20515;-70
2023/05/11 03:54:07;;;;;;;1.70;1.60;;;11.60;99.90;;;;;;5029430;28;20475;-70
2023/05/11 03:56:38;;;;;;;2.23;1.43;;;11.60;99.90;;;;;;5011700;28;20463;-69
2023/05/11 03:59:04;;;;;;;1.30;1.20;;;11.60;99.90;;;;;;5028574;28;20456;-70
2023/05/11 04:01:31;;;;;;;1.43;1.33;;;11.50;99.90;;;;;;5013637;28;20478;-70
2023/05/11 04:03:57;;;;;;;1.70;1.60;;;11.50;99.90;;;;;;5030038;28;20480;-70
2023/05/11 04:06:23;;;;;;;1.87;1.77;;;11.50;99.90;;;;;;5031603;28;20491;-69
2023/05/11 04:09:05;;;;;;;2.90;2.43;;;11.40;99.90;;;;;;5010977;28;20218;-69
2023/05/11 04:11:34;;;;;;;2.73;1.60;;;11.40;99.90;;;;;;5020637;28;20452;-69
2023/05/11 04:14:00;;;;;;;3.53;1.77;;;11.30;99.90;;;;;;5031295;28;20467;-70
2023/05/11 04:16:26;;;;;;;2.07;1.50;;;11.30;99.90;;;;;;5020502;28;20452;-70
2023/05/11 04:18:51;;;;;;;2.37;1.43;;;11.50;99.90;;;;;;5011880;28;20462;-69
2023/05/11 04:21:17;;;;;;;3.90;1.70;;;11.50;99.90;;;;;;5028285;28;20209;-69
2023/05/11 04:23:43;;;;;;;2.97;2.40;;;11.60;99.90;;;;;;5018381;28;20222;-68
2023/05/11 04:26:08;;;;;;;8.43;2.57;;;11.60;99.90;;;;;;5006376;28;20223;-70
2023/05/11 04:28:34;;;;;;;7.40;2.20;;;11.40;99.90;;;;;;5014482;28;20213;-71
2023/05/11 04:31:00;;;;;;;1.90;1.80;;;11.50;99.90;;;;;;5005146;28;20233;-70
2023/05/11 04:33:26;;;;;;;2.30;1.70;;;11.60;99.90;;;;;;5032463;28;20308;-70
2023/05/11 04:35:54;;;;;;;1.80;1.70;;;11.50;99.90;;;;;;5029425;28;20479;-70
2023/05/11 04:38:21;;;;;;;2.53;1.80;;;11.30;99.90;;;;;;5030402;28;20456;-71
2023/05/11 04:40:49;;;;;;;1.63;1.43;;;11.40;99.90;;;;;;5028749;28;20524;-70
2023/05/11 04:43:15;;;;;;;3.37;1.53;;;11.40;99.90;;;;;;5032722;28;20833;-71
2023/05/11 04:45:41;;;;;;;2.13;1.60;;;11.40;99.90;;;;;;5035444;28;20481;-71
2023/05/11 04:48:06;;;;;;;1.67;1.57;;;11.50;99.90;;;;;;5005228;28;20982;-71
2023/05/11 04:50:32;;;;;;;1.43;1.33;;;11.40;99.90;;;;;;5021846;28;20238;-71
2023/05/11 04:52:59;;;;;;;1.80;1.70;;;11.60;99.90;;;;;;5020390;28;20275;-69
2023/05/11 04:55:24;;;;;;;2.13;1.90;;;11.60;99.90;;;;;;5004725;28;20472;-70
2023/05/11 04:57:52;;;;;;;2.90;1.70;;;11.60;99.90;;;;;;5032157;28;20625;-70
2023/05/11 05:00:19;;;;;;;2.07;1.40;;;11.70;99.90;;;;;;4990220;28;20469;-69
2023/05/11 05:02:44;;;;;;;1.93;1.77;;;11.70;99.90;;;;;;5025618;28;20240;-71
2023/05/11 05:05:10;;;;;;;2.03;1.80;;;11.80;99.90;;;;;;5030327;28;20503;-70
2023/05/11 05:07:36;;;;;;;1.97;1.80;;;11.80;99.90;;;;;;5025176;28;20221;-71
2023/05/11 05:10:04;;;;;;;2.30;1.80;;;11.70;99.90;;;;;;5024558;28;20251;-67
2023/05/11 05:12:30;;;;;;;2.60;1.90;;;11.70;99.90;;;;;;5025724;28;20710;-68
2023/05/11 05:14:55;;;;;;;2.33;1.40;;;11.70;99.90;;;;;;5004648;28;20474;-70
2023/05/11 05:17:21;;;;;;;1.93;1.30;;;11.80;99.90;;;;;;5029672;28;20216;-71
2023/05/11 05:19:47;;;;;;;3.37;2.07;;;11.90;99.90;;;;;;5017116;28;20225;-70
2023/05/11 05:22:14;;;;;;;2.10;1.63;;;11.70;99.90;;;;;;5030160;28;20213;-70
2023/05/11 05:24:40;;;;;;;3.03;1.83;;;11.70;99.90;;;;;;5022692;28;20483;-72
2023/05/11 05:27:05;;;;;;;1.43;1.33;;;11.70;99.90;;;;;;5011279;28;20498;-73
2023/05/11 05:29:31;;;;;;;2.93;1.73;;;11.70;99.90;;;;;;4985605;28;20228;-73
2023/05/11 05:31:58;;;;;;;1.43;1.33;;;11.80;99.90;;;;;;5029551;28;20216;-70
2023/05/11 05:34:24;;;;;;;9.43;1.50;;;11.80;99.90;;;;;;5020137;28;20225;-70
2023/05/11 05:36:50;;;;;;;1.30;1.20;;;11.90;99.90;;;;;;5024905;28;20463;-70
2023/05/11 05:39:16;;;;;;;2.43;1.60;;;12.00;99.90;;;;;;5025349;28;20240;-72
2023/05/11 05:41:42;;;;;;;4.43;1.77;;;12.00;99.90;;;;;;5010224;28;20213;-69
2023/05/11 05:44:09;;;;;;;2.70;1.80;;;12.00;99.90;;;;;;5013102;28;20251;-71
2023/05/11 05:46:35;;;;;;;1.37;1.27;;;12.00;99.90;;;;;;5025426;28;20499;-70
2023/05/11 05:49:00;;;;;;;2.20;1.70;;;12.00;99.90;;;;;;5031088;28;20225;-71
2023/05/11 05:51:26;;;;;;;1.73;1.60;;;12.00;99.90;;;;;;5015214;28;20448;-72
2023/05/11 05:53:52;;;;;;;2.27;1.60;;;12.00;99.90;;;;;;5029945;28;20221;-71
2023/05/11 05:56:17;;;;;;;7.23;2.00;;;12.00;99.90;;;;;;5013975;28;20217;-71
2023/05/11 05:58:43;;;;;;;1.77;1.67;;;12.00;99.90;;;;;;5002441;28;20643;-71
2023/05/11 06:01:10;;;;;;;3.13;2.20;;;12.00;99.90;;;;;;5008627;28;20224;-75
2023/05/11 06:03:35;;;;;;;3.03;2.00;;;11.90;99.90;;;;;;5022947;28;20934;-70
2023/05/11 06:06:02;;;;;;;4.57;3.50;;;12.00;99.90;;;;;;5025160;28;20217;-71
2023/05/11 06:08:28;;;;;;;5.53;2.90;;;12.00;99.90;;;;;;5018695;28;20466;-70
2023/05/11 06:10:54;;;;;;;2.77;2.50;;;12.00;99.90;;;;;;5041648;28;20472;-71
2023/05/11 06:13:19;;;;;;;4.27;2.07;;;12.00;99.90;;;;;;5013884;28;20309;-71
2023/05/11 06:15:45;;;;;;;2.87;2.50;;;12.00;99.90;;;;;;5026960;28;21371;-72
2023/05/11 06:18:19;;;;;;;3.43;2.30;;;11.90;99.90;;;;;;5008973;28;20467;-71
2023/05/11 06:20:45;;;;;;;2.97;2.20;;;12.00;99.90;;;;;;5028515;28;20459;-70
2023/05/11 06:23:12;;;;;;;3.30;2.60;;;12.10;99.90;;;;;;5021081;28;20238;-70
2023/05/11 06:25:39;;;;;;;2.50;2.27;;;12.10;99.90;;;;;;5000799;28;20448;-71
2023/05/11 06:28:06;;;;;;;2.47;2.13;;;12.20;99.90;;;;;;5016882;28;20993;-71
2023/05/11 06:30:33;;;;;;;2.30;1.93;;;12.30;99.90;;;;;;5000511;28;20986;-72
2023/05/11 06:33:00;;;;;;;3.57;3.27;;;12.30;99.90;;;;;;5006805;28;21014;-69
2023/05/11 06:35:25;;;;;;;2.60;2.40;;;12.20;99.90;;;;;;5031333;28;20472;-72
2023/05/11 06:37:51;;;;;;;3.23;2.40;;;12.30;99.90;;;;;;5021912;28;20241;-71
2023/05/11 06:40:17;;;;;;;5.33;3.13;;;12.40;99.90;;;;;;5028808;28;20527;-70
2023/05/11 06:42:43;;;;;;;3.73;3.00;;;12.40;99.90;;;;;;5029013;28;20265;-71
2023/05/11 06:45:10;;;;;;;3.40;2.20;;;12.50;99.90;;;;;;5011985;28;20228;-71
2023/05/11 06:47:35;;;;;;;2.70;2.50;;;12.50;99.90;;;;;;5021461;28;20460;-72
2023/05/11 06:50:01;;;;;;;3.83;2.80;;;12.60;99.90;;;;;;5012866;28;20559;-70
2023/05/11 06:52:27;;;;;;;5.93;2.80;;;12.60;99.90;;;;;;5004291;28;20687;-71
2023/05/11 06:54:52;;;;;;;3.13;2.47;;;12.70;99.90;;;;;;5012017;28;20311;-70
2023/05/11 06:57:18;;;;;;;6.87;3.10;;;12.70;99.90;;;;;;5023235;28;20208;-70
2023/05/11 06:59:44;;;;;;;2.40;2.10;;;12.80;99.90;;;;;;5011690;28;20274;-71
2023/05/11 07:02:10;;;;;;;2.87;2.20;;;12.80;99.90;;;;;;5026091;28;20286;-71
2023/05/11 07:04:36;;;;;;;4.47;2.87;;;12.90;99.90;;;;;;5025544;28;20217;-70
2023/05/11 07:07:02;;;;;;;2.60;2.27;;;12.90;99.90;;;;;;5033311;28;20229;-71
2023/05/11 07:09:28;;;;;;;2.20;2.00;;;13.00;99.90;;;;;;5021673;28;20460;-74
2023/05/11 07:11:55;;;;;;;1.70;1.60;;;13.00;99.90;;;;;;5029922;28;20576;-71
2023/05/11 07:14:21;;;;;;;2.10;1.90;;;13.10;99.90;;;;;;5022734;28;20294;-71
2023/05/11 07:16:46;;;;;;;3.37;2.10;;;13.10;99.90;;;;;;5031789;28;20455;-70
2023/05/11 07:19:12;;;;;;;2.40;1.93;;;13.20;99.90;;;;;;5031107;28;20209;-72
2023/05/11 07:21:38;;;;;;;1.83;1.73;;;13.20;99.90;;;;;;5029209;28;20209;-71
2023/05/11 07:24:04;;;;;;;2.20;2.00;;;13.20;99.90;;;;;;5031892;28;20229;-71
2023/05/11 07:26:29;;;;;;;1.77;1.67;;;13.20;99.90;;;;;;5028341;28;20695;-71
2023/05/11 07:28:55;;;;;;;1.70;1.60;;;13.30;99.90;;;;;;5016737;28;20605;-72
2023/05/11 07:31:21;;;;;;;3.53;2.53;;;13.40;99.90;;;;;;5006477;28;20209;-71
2023/05/11 07:33:47;;;;;;;3.70;2.00;;;13.50;99.90;;;;;;5022351;28;20296;-70
2023/05/11 07:36:13;;;;;;;1.63;1.53;;;13.50;99.90;;;;;;5011981;28;20288;-70
2023/05/11 07:38:39;;;;;;;2.97;1.93;;;13.50;99.90;;;;;;5025317;28;20523;-70
2023/05/11 07:41:04;;;;;;;2.17;2.07;;;13.50;99.90;;;;;;5020853;28;20232;-69
2023/05/11 07:43:30;;;;;;;2.27;1.77;;;13.50;99.90;;;;;;5019762;28;20279;-70
2023/05/11 07:45:56;;;;;;;2.10;1.80;;;13.60;99.90;;;;;;5025394;28;20225;-72
2023/05/11 07:48:21;;;;;;;2.50;2.30;;;13.60;99.90;;;;;;5026321;28;20217;-70
2023/05/11 07:50:48;;;;;;;5.40;2.17;;;13.70;99.90;;;;;;4997001;28;20312;-71
2023/05/11 07:53:14;;;;;;;2.20;2.00;;;13.70;99.90;;;;;;5024144;28;20275;-72
2023/05/11 07:55:40;;;;;;;2.20;1.87;;;13.70;99.90;;;;;;5017261;28;20517;-71
2023/05/11 07:58:06;;;;;;;1.67;1.57;;;13.80;99.90;;;;;;5022946;28;20885;-71
2023/05/11 08:00:32;;;;;;;2.67;1.90;;;13.80;99.90;;;;;;5014862;28;20217;-72
2023/05/11 08:02:58;;;;;;;1.73;1.60;;;13.90;99.90;;;;;;5013882;28;20710;-71
2023/05/11 08:05:23;;;;;;;1.63;1.53;;;13.90;99.90;;;;;;5009619;28;20471;-71
2023/05/11 08:07:49;;;;;;;1.87;1.77;;;14.00;99.90;;;;;;5034412;28;20279;-69
2023/05/11 08:10:15;;;;;;;2.43;2.23;;;14.10;99.90;;;;;;5030501;28;20293;-68
2023/05/11 08:12:40;;;;;;;2.17;1.50;;;14.10;99.90;;;;;;5024127;28;20213;-69
2023/05/11 08:15:06;;;;;;;1.80;1.70;;;14.10;99.90;;;;;;5031165;28;20718;-69
2023/05/11 08:17:33;;;;;;;2.17;1.97;;;14.20;99.90;;;;;;5027854;28;20245;-69
2023/05/11 08:19:58;;;;;;;2.00;1.90;;;14.30;99.90;;;;;;5030608;28;20482;-69
2023/05/11 08:22:24;;;;;;;2.70;1.70;;;14.30;99.90;;;;;;5013978;28;20483;-68
2023/05/11 08:24:50;;;;;;;2.90;1.77;;;14.30;99.90;;;;;;5023924;28;20221;-67
2023/05/11 08:27:16;;;;;;;6.50;3.53;;;14.40;99.90;;;;;;5018577;28;20231;-67
2023/05/11 08:29:41;;;;;;;7.40;5.73;;;14.40;99.90;;;;;;5039958;28;20464;-69
2023/05/11 08:32:07;;;;;;;6.70;5.93;;;14.40;99.90;;;;;;5023917;28;20232;-68
2023/05/11 08:34:33;;;;;;;6.13;5.33;;;14.50;99.90;;;;;;5026238;28;20244;-69
2023/05/11 08:37:00;;;;;;;5.50;4.03;;;14.50;99.90;;;;;;5011601;28;20251;-70
2023/05/11 08:39:27;;;;;;;7.63;2.70;;;14.60;99.90;;;;;;5025270;28;20447;-69
2023/05/11 08:41:56;;;;;;;2.43;2.23;;;14.50;99.90;;;;;;5018732;28;20958;-69
2023/05/11 08:44:22;;;;;;;2.90;2.70;;;14.60;99.90;;;;;;5033635;28;20471;-67
2023/05/11 08:46:52;;;;;;;2.27;2.17;;;14.60;99.90;;;;;;5026754;28;20441;-71
2023/05/11 08:49:18;;;;;;;2.00;1.80;;;14.70;99.90;;;;;;5008837;28;20448;-69
2023/05/11 08:51:45;;;;;;;1.70;1.60;;;14.70;99.90;;;;;;5028500;28;20983;-69
2023/05/11 08:54:11;;;;;;;2.23;1.77;;;14.70;99.90;;;;;;5033520;28;20451;-72
2023/05/11 08:56:39;;;;;;;1.43;1.33;;;14.70;99.90;;;;;;5020287;28;20509;-69
2023/05/11 08:59:06;;;;;;;1.30;1.30;;;14.80;99.90;;;;;;5009796;28;20452;-68
2023/05/11 09:01:34;;;;;;;1.60;1.40;;;14.90;99.90;;;;;;5023676;28;20455;-70
2023/05/11 09:04:00;;;;;;;1.50;1.40;;;15.00;99.90;;;;;;5037438;28;20452;-69
2023/05/11 09:06:27;;;;;;;1.40;1.30;;;15.10;99.90;;;;;;5027132;28;20455;-69
2023/05/11 09:08:53;;;;;;;1.50;1.43;;;15.10;99.90;;;;;;5026223;28;20451;-68
2023/05/11 09:11:20;;;;;;;5.70;1.47;;;15.20;99.90;;;;;;5029385;28;20444;-69
2023/05/11 09:13:46;;;;;;;2.23;2.03;;;15.10;99.90;;;;;;5032372;28;20467;-70
2023/05/11 09:16:12;;;;;;;3.10;1.70;;;15.10;99.90;;;;;;5013429;28;20478;-68
2023/05/11 09:18:51;;;;;;;1.83;1.67;;;15.10;99.90;;;;;;5027456;28;20209;-68
2023/05/11 09:21:18;;;;;;;1.67;1.57;;;15.20;99.90;;;;;;5019871;28;20209;-70
2023/05/11 09:23:44;;;;;;;1.80;1.70;;;15.30;99.90;;;;;;5024763;28;20469;-70
2023/05/11 09:26:28;;;;;;;2.63;1.97;;;15.30;99.90;;;;;;5003947;28;20567;-70
2023/05/11 09:28:56;;;;;;;2.73;1.90;;;15.30;99.90;;;;;;5026422;28;20253;-71
2023/05/11 09:31:44;;;;;;;1.90;1.80;;;15.30;99.90;;;;;;5024451;28;20456;-70
2023/05/11 09:34:16;;;;;;;1.33;1.27;;;15.40;99.90;;;;;;5033437;28;20459;-69
2023/05/11 09:36:46;;;;;;;1.43;1.33;;;15.40;99.90;;;;;;5023690;28;20467;-69
2023/05/11 09:39:13;;;;;;;1.50;1.40;;;15.40;99.90;;;;;;5031928;28;20466;-69
2023/05/11 09:41:39;;;;;;;6.43;1.73;;;15.40;99.90;;;;;;5036708;28;20456;-69
2023/05/11 09:44:05;;;;;;;1.97;1.80;;;15.50;99.90;;;;;;5016536;28;20463;-69
2023/05/11 09:46:30;;;;;;;1.93;1.83;;;15.50;99.90;;;;;;5018958;28;20468;-68
2023/05/11 09:49:00;;;;;;;2.47;2.10;;;15.60;99.90;;;;;;5019109;28;20287;-70
2023/05/11 09:51:39;;;;;;;1.80;1.70;;;15.70;99.90;;;;;;5033364;28;20219;-70
2023/05/11 09:54:21;;;;;;;1.53;1.43;;;15.70;99.90;;;;;;5008380;28;20848;-70
2023/05/11 09:56:59;;;;;;;1.90;1.80;;;15.80;99.90;;;;;;5032399;28;20440;-70
2023/05/11 09:59:42;;;;;;;2.50;1.80;;;15.90;99.90;;;;;;5024840;28;20504;-70
2023/05/11 10:02:18;;;;;;;1.97;1.83;;;16.00;99.90;;;;;;5007626;28;20452;-69
2023/05/11 10:04:44;;;;;;;2.10;2.00;;;16.00;99.90;;;;;;5021870;28;20452;-70
2023/05/11 10:07:10;;;;;;;2.00;1.90;;;15.90;99.90;;;;;;5023675;28;20452;-70
2023/05/11 10:09:37;;;;;;;4.60;2.47;;;16.00;99.90;;;;;;5031576;28;20459;-69
2023/05/11 10:12:05;;;;;;;2.20;1.97;;;16.10;99.90;;;;;;4996448;28;20308;-69
2023/05/11 10:14:32;;;;;;;2.03;1.80;;;16.10;99.90;;;;;;5023884;28;20477;-70
2023/05/11 10:17:00;;;;;;;2.10;2.00;;;16.20;99.90;;;;;;5012053;28;20451;-70
2023/05/11 10:19:26;;;;;;;2.30;2.10;;;16.30;99.90;;;;;;5019315;28;20528;-70
2023/05/11 10:21:54;;;;;;;2.10;1.73;;;16.30;99.90;;;;;;5028937;28;20448;-73
2023/05/11 10:24:21;;;;;;;2.50;2.20;;;16.40;99.90;;;;;;5027075;28;20463;-69
2023/05/11 10:26:47;;;;;;;2.43;2.20;;;16.30;99.90;;;;;;5034670;28;20464;-70
2023/05/11 10:29:13;;;;;;;3.00;2.10;;;16.40;99.90;;;;;;5024478;28;20468;-70
2023/05/11 10:31:39;;;;;;;1.97;1.87;;;16.50;99.90;;;;;;5004952;28;20517;-70
2023/05/11 10:34:06;;;;;;;1.87;1.77;;;16.60;99.90;;;;;;4997172;28;20234;-70
2023/05/11 10:36:32;;;;;;;2.27;2.10;;;16.50;99.90;;;;;;5023493;28;20999;-70
2023/05/11 10:38:58;;;;;;;2.40;2.23;;;16.50;99.90;;;;;;5015218;28;20471;-70
2023/05/11 10:42:00;;;;;;;2.80;2.50;;;16.50;99.90;;;;;;5019612;28;20474;-70
2023/05/11 10:44:31;;;;;;;6.00;2.40;;;16.60;99.90;;;;;;5035413;28;20674;-71
2023/05/11 10:47:24;;;;;;;3.40;2.20;;;16.60;99.90;;;;;;5029743;28;20989;-70
2023/05/11 10:50:24;;;;;;;2.53;2.33;;;16.60;99.90;;;;;;5029029;28;20567;-70
2023/05/11 10:52:59;;;;;;;2.00;1.90;;;16.70;99.90;;;;;;4994347;28;20463;-70
2023/05/11 10:55:30;;;;;;;2.70;2.43;;;16.70;99.90;;;;;;5033483;28;21003;-72
2023/05/11 10:58:14;;;;;;;2.47;2.17;;;16.70;99.90;;;;;;5018580;28;20462;-70
2023/05/11 11:01:01;;;;;;;2.30;2.13;;;16.80;99.90;;;;;;5028314;28;20837;-69
2023/05/11 11:03:27;;;;;;;1.93;1.67;;;16.70;99.90;;;;;;5021025;28;20855;-69
2023/05/11 11:05:52;;;;;;;2.50;2.30;;;16.70;99.90;;;;;;5031517;28;20463;-69
2023/05/11 11:08:19;;;;;;;1.90;1.80;;;16.80;99.90;;;;;;5027931;28;20459;-70
2023/05/11 11:10:45;;;;;;;2.30;2.10;;;16.90;99.90;;;;;;5033722;28;20717;-71
2023/05/11 11:13:15;;;;;;;2.70;2.10;;;16.90;99.90;;;;;;5033377;28;20539;-72
2023/05/11 11:15:53;;;;;;;3.20;1.47;;;17.00;99.90;;;;;;5029049;28;20344;-70
2023/05/11 11:18:20;;;;;;;1.90;1.80;;;17.00;99.90;;;;;;5018094;28;20483;-70
2023/05/11 11:20:48;;;;;;;1.90;1.80;;;17.00;99.90;;;;;;4997622;28;20461;-71
2023/05/11 11:23:38;;;;;;;2.33;2.00;;;17.00;99.90;;;;;;5027788;28;20463;-71
2023/05/11 11:26:05;;;;;;;2.00;1.90;;;17.10;99.90;;;;;;5051037;28;20505;-68
2023/05/11 11:28:52;;;;;;;2.20;1.90;;;17.10;99.90;;;;;;5032698;28;20461;-70
2023/05/11 11:31:29;;;;;;;1.90;1.70;;;17.20;99.90;;;;;;5028792;28;20452;-71
2023/05/11 11:33:57;;;;;;;1.93;1.83;;;17.20;99.90;;;;;;5019810;28;21239;-70
2023/05/11 11:36:57;;;;;;;1.67;1.57;;;17.20;99.90;;;;;;5036333;28;20475;-70
2023/05/11 11:39:59;;;;;;;1.97;1.87;;;17.10;99.90;;;;;;5038113;28;20466;-72
2023/05/11 11:42:33;;;;;;;5.17;2.60;;;17.20;99.90;;;;;;5019882;28;21165;-70
2023/05/11 11:45:29;;;;;;;2.57;2.37;;;17.20;99.90;;;;;;5031005;28;20459;-69
2023/05/11 11:48:12;;;;;;;2.50;2.30;;;17.30;99.90;;;;;;5028292;28;20529;-70
2023/05/11 11:50:40;;;;;;;2.37;2.17;;;17.20;99.90;;;;;;5010912;28;20543;-70
2023/05/11 11:53:09;;;;;;;2.67;1.77;;;17.20;99.90;;;;;;5010050;28;20472;-70
2023/05/11 11:55:47;;;;;;;2.53;2.33;;;17.20;99.90;;;;;;5030035;28;20495;-69
2023/05/11 11:58:38;;;;;;;3.17;2.20;;;17.20;99.90;;;;;;5029613;28;20985;-70
2023/05/11 12:01:05;;;;;;;2.30;2.03;;;17.10;99.90;;;;;;5016934;28;21072;-69
2023/05/11 12:03:34;;;;;;;2.20;2.00;;;17.00;99.90;;;;;;5030262;28;20493;-70
2023/05/11 12:06:03;;;;;;;2.60;2.50;;;17.10;99.90;;;;;;5016687;28;20563;-69
2023/05/11 12:08:32;;;;;;;2.37;2.17;;;17.10;99.90;;;;;;5035266;28;20530;-72
2023/05/11 12:10:58;;;;;;;2.70;2.30;;;17.10;99.90;;;;;;5013383;28;20456;-70
2023/05/11 12:13:24;;;;;;;2.70;2.50;;;17.10;99.90;;;;;;5036434;28;20526;-69
2023/05/11 12:16:13;;;;;;;2.30;2.10;;;17.10;99.90;;;;;;5028806;28;20600;-69
2023/05/11 12:18:39;;;;;;;2.53;2.33;;;17.10;99.90;;;;;;5046012;28;20456;-69
2023/05/11 12:21:05;;;;;;;2.27;2.07;;;17.10;99.90;;;;;;5032260;28;20460;-70
2023/05/11 12:23:31;;;;;;;2.67;2.47;;;17.10;99.90;;;;;;5028472;28;20865;-69
2023/05/11 12:26:05;;;;;;;2.97;2.77;;;17.10;99.90;;;;;;5007198;28;20228;-70
2023/05/11 12:28:32;;;;;;;5.50;2.37;;;17.00;99.90;;;;;;5014382;28;20216;-69
2023/05/11 12:30:58;;;;;;;2.60;2.50;;;17.10;99.90;;;;;;5032644;28;20991;-71
2023/05/11 12:33:24;;;;;;;2.47;2.27;;;17.20;99.90;;;;;;5026873;28;20460;-69
2023/05/11 12:35:54;;;;;;;2.53;2.33;;;17.20;99.90;;;;;;5032407;28;20452;-70
2023/05/11 12:38:20;;;;;;;2.80;2.60;;;17.20;99.90;;;;;;5013221;28;20226;-71
2023/05/11 12:40:47;;;;;;;2.70;2.50;;;17.20;99.90;;;;;;5017845;28;20517;-69
2023/05/11 12:43:17;;;;;;;2.70;2.50;;;17.20;99.90;;;;;;5038002;28;20555;-68
2023/05/11 12:45:43;;;;;;;3.00;2.70;;;17.20;99.90;;;;;;5037438;28;20466;-69
2023/05/11 12:48:10;;;;;;;4.40;4.00;;;17.20;99.90;;;;;;5027781;28;20447;-68
2023/05/11 12:50:45;;;;;;;3.50;3.20;;;17.30;99.90;;;;;;5037128;28;20470;-70
2023/05/11 12:53:11;;;;;;;3.33;2.77;;;17.30;99.90;;;;;;5008483;28;20459;-72
2023/05/11 12:55:37;;;;;;;6.00;4.60;;;17.30;99.90;;;;;;5031024;28;20518;-72